Time;durP1;ratioP1;P1;durP2;ratioP2;P2;SDS_P1;SDS_P2;PMS_P1;PMS_P2;Temp;Humidity;BMP_temperature;BMP_pressure;BME280_temperature;BME280_humidity;BME280_pressure;Samples;Min_cycle;Max_cycle;Signal;HPM_P1;HPM_P2
2024/01/05 00:01:20;;;;;;;8.90;3.22;;;2.50;99.90;;;;;;4148143;28;20046;-82
2024/01/05 00:03:21;;;;;;;7.28;3.50;;;3.00;99.90;;;;;;4148040;28;20477;-81
2024/01/05 00:05:22;;;;;;;8.10;3.80;;;2.80;99.90;;;;;;4147246;28;20046;-82
2024/01/05 00:07:24;;;;;;;7.45;3.92;;;2.50;99.90;;;;;;4143989;28;20050;-82
2024/01/05 00:09:25;;;;;;;12.57;4.65;;;2.40;99.90;;;;;;4142913;28;20056;-82
2024/01/05 00:11:27;;;;;;;9.30;3.33;;;2.40;99.90;;;;;;4142324;28;20041;-81
2024/01/05 00:13:29;;;;;;;9.13;4.32;;;2.40;99.90;;;;;;4143209;28;20061;-82
2024/01/05 00:15:37;;;;;;;6.53;3.58;;;3.10;99.90;;;;;;4142897;28;20054;-82
2024/01/05 00:17:39;;;;;;;8.65;3.50;;;2.50;99.90;;;;;;4134079;28;20479;-82
2024/01/05 00:19:40;;;;;;;11.35;4.15;;;2.40;99.90;;;;;;4109489;28;20055;-82
2024/01/05 00:21:41;;;;;;;8.15;3.72;;;2.40;99.90;;;;;;4126400;28;20077;-82
2024/01/05 00:23:43;;;;;;;9.25;3.38;;;2.40;99.90;;;;;;4141133;28;20506;-81
2024/01/05 00:25:43;;;;;;;9.82;3.97;;;2.40;99.90;;;;;;4142867;28;20057;-82
2024/01/05 00:28:10;;;;;;;8.45;3.10;;;2.40;99.90;;;;;;4143044;28;20113;-82
2024/01/05 00:30:11;;;;;;;7.07;3.22;;;2.40;99.90;;;;;;4143797;28;20078;-82
2024/01/05 00:32:13;;;;;;;7.65;3.25;;;2.40;99.90;;;;;;4142318;28;20051;-82
2024/01/05 00:34:19;;;;;;;9.02;3.60;;;2.40;99.90;;;;;;4142816;28;20111;-82
2024/01/05 00:36:21;;;;;;;7.43;3.90;;;3.00;99.90;;;;;;4142230;28;20411;-82
2024/01/05 00:38:29;;;;;;;7.13;3.55;;;2.30;99.90;;;;;;4142895;28;20410;-82
2024/01/05 00:40:30;;;;;;;7.78;3.45;;;2.30;99.90;;;;;;4142850;28;20050;-82
2024/01/05 00:42:33;;;;;;;10.55;4.60;;;2.30;99.90;;;;;;4126876;28;20057;-82
2024/01/05 00:44:33;;;;;;;10.77;4.10;;;2.30;99.90;;;;;;4126352;28;20138;-82
2024/01/05 00:46:39;;;;;;;9.13;3.80;;;2.30;99.90;;;;;;4125855;28;20054;-81
2024/01/05 00:48:40;;;;;;;8.65;3.65;;;2.30;99.90;;;;;;4125044;28;20050;-82
2024/01/05 00:50:42;;;;;;;8.70;4.03;;;2.30;99.90;;;;;;4108314;29;20062;-82
2024/01/05 00:52:43;;;;;;;8.25;4.20;;;2.30;99.90;;;;;;4126219;28;20447;-82
2024/01/05 00:54:44;;;;;;;11.55;4.35;;;2.50;99.90;;;;;;4124775;28;20050;-81
2024/01/05 00:56:48;;;;;;;11.75;4.63;;;2.80;99.90;;;;;;4138565;28;20061;-82
2024/01/05 00:58:51;;;;;;;8.95;4.35;;;2.20;99.90;;;;;;4141638;28;20050;-81
2024/01/05 01:00:53;;;;;;;8.95;4.00;;;2.20;99.90;;;;;;4137576;28;20095;-81
2024/01/05 01:02:54;;;;;;;14.82;5.07;;;2.20;99.90;;;;;;4140098;28;20042;-81
2024/01/05 01:04:55;;;;;;;13.93;4.57;;;2.20;99.90;;;;;;4140381;28;20081;-81
2024/01/05 01:07:01;;;;;;;12.18;5.13;;;2.10;99.90;;;;;;4141623;28;20038;-82
2024/01/05 01:09:02;;;;;;;9.95;4.53;;;2.10;99.90;;;;;;4141825;28;20058;-81
2024/01/05 01:11:03;;;;;;;10.55;4.57;;;2.10;99.90;;;;;;4141123;28;20038;-81
2024/01/05 01:13:05;;;;;;;10.38;4.70;;;2.10;99.90;;;;;;4142578;28;20097;-81
2024/01/05 01:15:06;;;;;;;14.32;4.80;;;2.20;99.90;;;;;;4142593;28;20054;-81
2024/01/05 01:17:08;;;;;;;11.68;4.45;;;2.10;99.90;;;;;;4141901;28;20057;-81
2024/01/05 01:19:10;;;;;;;10.35;5.32;;;2.20;99.90;;;;;;4141983;28;20046;-81
2024/01/05 01:21:18;;;;;;;9.20;4.43;;;2.10;99.90;;;;;;4141403;28;20057;-82
2024/01/05 01:23:20;;;;;;;11.30;4.22;;;2.10;99.90;;;;;;4141811;28;20050;-81
2024/01/05 01:25:20;;;;;;;9.88;4.70;;;2.80;99.90;;;;;;4140983;28;20088;-82
2024/01/05 01:27:22;;;;;;;10.10;4.15;;;2.10;99.90;;;;;;4141356;28;20042;-81
2024/01/05 01:29:25;;;;;;;12.95;4.78;;;2.10;99.90;;;;;;4142106;28;20053;-82
2024/01/05 01:31:28;;;;;;;9.23;4.22;;;2.10;99.90;;;;;;4141815;28;20117;-81
2024/01/05 01:33:31;;;;;;;19.63;5.35;;;2.10;99.90;;;;;;4142168;28;20501;-81
2024/01/05 01:35:32;;;;;;;11.50;4.65;;;2.00;99.90;;;;;;4140935;28;20097;-81
2024/01/05 01:37:33;;;;;;;11.43;5.65;;;2.10;99.90;;;;;;4141426;28;20046;-82
2024/01/05 01:39:36;;;;;;;16.75;4.40;;;2.00;99.90;;;;;;4140285;28;20129;-82
2024/01/05 01:41:37;;;;;;;12.65;4.55;;;2.10;99.90;;;;;;4125593;28;20102;-81
2024/01/05 01:43:46;;;;;;;11.27;4.22;;;2.10;99.90;;;;;;4135384;28;20042;-82
2024/01/05 01:45:55;;;;;;;10.20;4.22;;;2.60;99.90;;;;;;4124365;28;20081;-81
2024/01/05 01:47:57;;;;;;;11.68;4.57;;;2.90;99.90;;;;;;4141530;28;20050;-82
2024/01/05 01:49:59;;;;;;;12.20;5.00;;;2.10;99.90;;;;;;4141225;28;20042;-82
2024/01/05 01:52:01;;;;;;;11.18;4.60;;;2.60;99.90;;;;;;4141152;28;20053;-81
2024/01/05 01:54:05;;;;;;;11.88;4.68;;;2.00;99.90;;;;;;4141374;28;20070;-81
2024/01/05 01:56:10;;;;;;;14.10;4.97;;;2.30;99.90;;;;;;4141300;28;20047;-81
2024/01/05 01:58:14;;;;;;;10.50;4.60;;;2.00;99.90;;;;;;4141285;28;20077;-81
2024/01/05 02:00:16;;;;;;;11.27;4.60;;;2.00;99.90;;;;;;4131362;28;20055;-82
2024/01/05 02:02:16;;;;;;;11.50;5.10;;;2.10;99.90;;;;;;4110486;28;20049;-81
2024/01/05 02:04:21;;;;;;;13.48;4.90;;;2.00;99.90;;;;;;4141772;28;20145;-82
2024/01/05 02:06:22;;;;;;;9.27;3.97;;;2.00;99.90;;;;;;4124002;28;20051;-82
2024/01/05 02:08:24;;;;;;;11.90;5.03;;;2.00;99.90;;;;;;4141101;28;20042;-82
2024/01/05 02:10:24;;;;;;;9.40;4.25;;;2.00;99.90;;;;;;4141158;28;20066;-82
2024/01/05 02:12:26;;;;;;;9.93;3.90;;;2.00;99.90;;;;;;4141377;28;20491;-82
2024/01/05 02:14:28;;;;;;;14.43;4.18;;;2.00;99.90;;;;;;4141150;28;20042;-82
2024/01/05 02:16:29;;;;;;;11.23;4.75;;;2.00;99.90;;;;;;4141428;28;20085;-82
2024/01/05 02:18:31;;;;;;;13.23;4.57;;;2.00;99.90;;;;;;4140499;28;20053;-81
2024/01/05 02:20:32;;;;;;;10.02;4.47;;;2.00;99.90;;;;;;4129814;28;20103;-82
2024/01/05 02:22:36;;;;;;;13.55;4.80;;;2.00;99.90;;;;;;4141024;28;20054;-82
2024/01/05 02:24:42;;;;;;;11.65;5.03;;;2.00;99.90;;;;;;4141240;28;20049;-82
2024/01/05 02:26:44;;;;;;;15.88;5.70;;;2.00;99.90;;;;;;4141736;28;20038;-82
2024/01/05 02:28:45;;;;;;;17.17;4.63;;;2.00;99.90;;;;;;4141313;28;20487;-81
2024/01/05 02:30:46;;;;;;;15.10;4.80;;;2.10;99.90;;;;;;4141307;28;20070;-82
2024/01/05 02:32:50;;;;;;;13.43;5.43;;;2.10;99.90;;;;;;4140764;28;20050;-81
2024/01/05 02:34:51;;;;;;;13.70;5.13;;;2.10;99.90;;;;;;4141463;28;20415;-81
2024/01/05 02:36:53;;;;;;;12.35;4.63;;;2.10;99.90;;;;;;4138016;28;20039;-81
2024/01/05 02:38:55;;;;;;;12.57;4.90;;;2.10;99.90;;;;;;4141453;28;20514;-82
2024/01/05 02:40:55;;;;;;;9.50;4.53;;;2.60;99.90;;;;;;4141137;28;20088;-81
2024/01/05 02:42:58;;;;;;;11.13;3.90;;;2.10;99.90;;;;;;4140150;28;20046;-81
2024/01/05 02:45:01;;;;;;;15.25;4.63;;;2.00;99.90;;;;;;4140727;28;20043;-82
2024/01/05 02:47:02;;;;;;;12.98;4.13;;;2.10;99.90;;;;;;4140518;28;20047;-81
2024/01/05 02:49:04;;;;;;;11.45;4.97;;;2.00;99.90;;;;;;4140747;28;20049;-81
2024/01/05 02:51:07;;;;;;;13.05;5.22;;;2.00;99.90;;;;;;4123414;28;20405;-81
2024/01/05 02:53:09;;;;;;;14.63;4.70;;;2.00;99.90;;;;;;4140514;28;20038;-81
2024/01/05 02:55:11;;;;;;;12.07;4.70;;;2.00;99.90;;;;;;4140550;28;20038;-81
2024/01/05 02:57:11;;;;;;;15.98;5.55;;;2.00;99.90;;;;;;4141483;28;20042;-82
2024/01/05 02:59:14;;;;;;;16.25;4.68;;;2.00;99.90;;;;;;4140402;28;20125;-81
2024/01/05 03:01:16;;;;;;;15.35;5.63;;;2.00;99.90;;;;;;4139687;28;20046;-82
2024/01/05 03:03:18;;;;;;;16.15;5.18;;;2.00;99.90;;;;;;4132561;28;20042;-81
2024/01/05 03:05:19;;;;;;;16.73;5.68;;;2.00;99.90;;;;;;4107030;29;20074;-81
2024/01/05 03:07:23;;;;;;;20.98;5.43;;;2.00;99.90;;;;;;4123735;28;20118;-81
2024/01/05 03:09:27;;;;;;;14.48;6.00;;;2.00;99.90;;;;;;4123957;28;20051;-81
2024/01/05 03:11:27;;;;;;;11.10;4.97;;;2.00;99.90;;;;;;4129821;28;20094;-82
2024/01/05 03:13:29;;;;;;;11.45;5.05;;;1.90;99.90;;;;;;4139669;28;20038;-82
2024/01/05 03:15:36;;;;;;;11.90;5.03;;;1.90;99.90;;;;;;4139144;28;20120;-81
2024/01/05 03:17:36;;;;;;;12.95;5.38;;;2.00;99.90;;;;;;4138679;28;20038;-81
2024/01/05 03:19:39;;;;;;;16.38;5.43;;;2.00;99.90;;;;;;4139900;28;20053;-82
2024/01/05 03:21:39;;;;;;;13.23;5.40;;;1.90;99.90;;;;;;4139994;28;20061;-81
2024/01/05 03:23:42;;;;;;;13.50;5.70;;;1.90;99.90;;;;;;4139544;28;20550;-81
2024/01/05 03:25:45;;;;;;;12.70;5.95;;;1.90;99.90;;;;;;4139300;28;20093;-82
2024/01/05 03:27:46;;;;;;;11.30;4.90;;;2.50;99.90;;;;;;4139657;28;20050;-81
2024/01/05 03:29:48;;;;;;;16.45;5.95;;;1.90;99.90;;;;;;4140405;28;20050;-81
2024/01/05 03:31:48;;;;;;;13.15;5.40;;;1.90;99.90;;;;;;4140252;28;20042;-81
2024/01/05 03:33:55;;;;;;;15.95;5.88;;;1.90;99.90;;;;;;4128089;28;20057;-81
2024/01/05 03:35:55;;;;;;;12.13;4.50;;;1.90;99.90;;;;;;4137379;28;20053;-82
2024/01/05 03:37:57;;;;;;;15.90;5.75;;;1.90;99.90;;;;;;4139685;28;20054;-82
2024/01/05 03:39:59;;;;;;;15.23;5.35;;;1.90;99.90;;;;;;4139940;28;20050;-81
2024/01/05 03:42:00;;;;;;;12.40;5.03;;;1.90;99.90;;;;;;4140695;28;20097;-82
2024/01/05 03:44:04;;;;;;;14.10;4.53;;;1.90;99.90;;;;;;4140377;28;20054;-81
2024/01/05 03:46:09;;;;;;;12.30;4.85;;;1.90;99.90;;;;;;4139125;28;20046;-82
2024/01/05 03:48:11;;;;;;;13.23;5.10;;;1.90;99.90;;;;;;4140367;28;20053;-81
2024/01/05 03:50:12;;;;;;;10.50;4.85;;;2.40;99.90;;;;;;4139890;28;20050;-82
2024/01/05 03:52:14;;;;;;;13.10;5.30;;;1.90;99.90;;;;;;4122687;28;20051;-82
2024/01/05 03:54:16;;;;;;;11.75;4.82;;;2.50;99.90;;;;;;4140165;28;20046;-82
2024/01/05 03:56:19;;;;;;;15.45;5.30;;;1.90;99.90;;;;;;4140093;28;20053;-82
2024/01/05 03:58:20;;;;;;;9.73;3.97;;;1.90;99.90;;;;;;4139672;28;20200;-81
2024/01/05 04:00:21;;;;;;;13.68;5.47;;;1.90;99.90;;;;;;4139735;28;20074;-81
2024/01/05 04:02:23;;;;;;;14.35;5.00;;;1.90;99.90;;;;;;4139404;28;20046;-81
2024/01/05 04:04:24;;;;;;;15.75;5.43;;;1.90;99.90;;;;;;4139575;28;20046;-81
2024/01/05 04:06:24;;;;;;;12.30;5.25;;;1.90;99.90;;;;;;4139920;28;20362;-82
2024/01/05 04:08:25;;;;;;;13.05;5.53;;;1.90;99.90;;;;;;4140058;28;20042;-81
2024/01/05 04:10:28;;;;;;;14.80;5.25;;;1.90;99.90;;;;;;4137412;28;20105;-81
2024/01/05 04:12:30;;;;;;;14.63;5.38;;;1.90;99.90;;;;;;4123876;28;20057;-82
2024/01/05 04:14:35;;;;;;;13.57;5.70;;;1.90;99.90;;;;;;4123128;28;20050;-82
2024/01/05 04:16:36;;;;;;;16.08;5.47;;;1.90;99.90;;;;;;4123067;28;20058;-82
2024/01/05 04:18:38;;;;;;;12.63;5.57;;;2.40;99.90;;;;;;4123440;28;20051;-82
2024/01/05 04:20:38;;;;;;;17.02;5.15;;;1.90;99.90;;;;;;4136470;28;20122;-81
2024/01/05 04:22:39;;;;;;;14.40;5.53;;;1.90;99.90;;;;;;4139270;28;20042;-81
2024/01/05 04:24:47;;;;;;;11.80;5.70;;;1.90;99.90;;;;;;4140418;28;20061;-81
2024/01/05 04:26:49;;;;;;;11.32;4.68;;;1.90;99.90;;;;;;4139924;28;20069;-81
2024/01/05 04:28:51;;;;;;;16.40;6.03;;;1.90;99.90;;;;;;4140245;28;20050;-82
2024/01/05 04:30:58;;;;;;;16.42;5.13;;;2.40;99.90;;;;;;4125546;28;20372;-81
2024/01/05 04:32:58;;;;;;;16.77;5.07;;;1.90;99.90;;;;;;4142870;28;20050;-82
2024/01/05 04:35:01;;;;;;;13.07;5.07;;;1.90;99.90;;;;;;4125588;28;20078;-82
2024/01/05 04:37:03;;;;;;;15.80;5.40;;;1.90;99.90;;;;;;4142453;28;20042;-82
2024/01/05 04:39:05;;;;;;;10.65;5.35;;;1.90;99.90;;;;;;4142031;28;20062;-81
2024/01/05 04:41:07;;;;;;;15.18;5.43;;;1.90;99.90;;;;;;4142637;28;20130;-81
2024/01/05 04:43:09;;;;;;;12.07;4.72;;;1.90;99.90;;;;;;4138046;28;20513;-81
2024/01/05 04:45:11;;;;;;;10.70;4.72;;;1.90;99.90;;;;;;4142572;28;20073;-82
2024/01/05 04:47:15;;;;;;;14.05;4.88;;;1.90;99.90;;;;;;4142115;28;20039;-81
2024/01/05 04:49:17;;;;;;;15.52;5.65;;;1.90;99.90;;;;;;4141686;28;20043;-82
2024/01/05 04:51:19;;;;;;;16.95;5.57;;;1.90;99.90;;;;;;4135170;28;20043;-82
2024/01/05 04:53:20;;;;;;;12.90;4.65;;;2.40;99.90;;;;;;4142170;28;20081;-82
2024/01/05 04:55:21;;;;;;;14.00;5.05;;;1.90;99.90;;;;;;4141986;28;20421;-82
2024/01/05 04:57:22;;;;;;;10.60;4.22;;;1.90;99.90;;;;;;4141469;28;20070;-82
2024/01/05 04:59:24;;;;;;;15.80;5.10;;;1.90;99.90;;;;;;4141613;28;20046;-81
2024/01/05 05:01:25;;;;;;;14.35;4.88;;;1.90;99.90;;;;;;4141779;28;20072;-82
2024/01/05 05:03:29;;;;;;;14.43;4.63;;;1.90;99.90;;;;;;4142510;28;20053;-82
2024/01/05 05:05:30;;;;;;;14.98;5.57;;;1.90;99.90;;;;;;4124423;28;20051;-81
2024/01/05 05:07:31;;;;;;;11.85;4.28;;;1.90;99.90;;;;;;4140797;28;20050;-81
2024/01/05 05:09:32;;;;;;;14.80;5.07;;;1.90;99.90;;;;;;4141830;28;20097;-81
2024/01/05 05:11:33;;;;;;;12.13;5.57;;;1.90;99.90;;;;;;4124664;28;20122;-81
2024/01/05 05:13:35;;;;;;;11.27;4.13;;;2.30;99.90;;;;;;4125840;28;20050;-81
2024/01/05 05:15:37;;;;;;;9.00;4.15;;;1.90;99.90;;;;;;4125967;28;20055;-81
2024/01/05 05:17:40;;;;;;;10.20;3.95;;;2.50;99.90;;;;;;4137978;28;20439;-81
2024/01/05 05:19:42;;;;;;;11.73;4.65;;;1.90;99.90;;;;;;4141569;28;20046;-81
2024/01/05 05:21:45;;;;;;;11.13;4.78;;;1.90;99.90;;;;;;4141492;28;20090;-81
2024/01/05 05:23:48;;;;;;;12.75;4.28;;;1.90;99.90;;;;;;4130505;28;20098;-81
2024/01/05 05:25:49;;;;;;;13.68;5.40;;;2.60;99.90;;;;;;4118077;29;20113;-81
2024/01/05 05:27:50;;;;;;;8.45;3.90;;;2.60;99.90;;;;;;4141699;28;20078;-81
2024/01/05 05:29:57;;;;;;;11.93;4.72;;;1.90;99.90;;;;;;4148067;28;20050;-82
2024/01/05 05:31:59;;;;;;;9.18;3.70;;;1.90;99.90;;;;;;4147650;28;20050;-81
2024/01/05 05:33:59;;;;;;;12.57;4.82;;;2.00;99.90;;;;;;4146922;28;20118;-82
2024/01/05 05:36:00;;;;;;;10.30;4.40;;;2.70;99.90;;;;;;4150005;28;20046;-82
2024/01/05 05:38:03;;;;;;;15.60;4.57;;;2.80;99.90;;;;;;4150294;28;20051;-82
2024/01/05 05:40:04;;;;;;;14.15;4.53;;;2.00;99.90;;;;;;4142830;28;20073;-82
2024/01/05 05:42:06;;;;;;;13.63;4.22;;;2.00;99.90;;;;;;4123718;28;20061;-82
2024/01/05 05:44:09;;;;;;;13.38;5.10;;;2.00;99.90;;;;;;4141157;28;20073;-81
2024/01/05 05:46:09;;;;;;;17.55;5.57;;;2.00;99.90;;;;;;4142151;28;20042;-82
2024/01/05 05:48:13;;;;;;;15.00;5.97;;;2.00;99.90;;;;;;4142304;28;20074;-82
2024/01/05 05:50:15;;;;;;;16.50;5.13;;;2.00;99.90;;;;;;4123362;28;20129;-81
2024/01/05 05:52:18;;;;;;;19.38;6.45;;;1.90;99.90;;;;;;4138912;28;20053;-82
2024/01/05 05:54:19;;;;;;;12.00;4.70;;;2.00;99.90;;;;;;4125709;28;20043;-82
2024/01/05 05:56:21;;;;;;;13.48;5.05;;;2.00;99.90;;;;;;4124587;28;20247;-82
2024/01/05 05:58:23;;;;;;;11.55;4.78;;;2.70;99.90;;;;;;4127875;28;20073;-82
2024/01/05 06:00:26;;;;;;;14.25;5.15;;;2.90;99.90;;;;;;4141311;28;20042;-81
2024/01/05 06:02:28;;;;;;;13.10;5.07;;;2.00;99.90;;;;;;4140618;28;20399;-82
2024/01/05 06:04:30;;;;;;;11.95;4.95;;;2.00;99.90;;;;;;4141202;28;20081;-82
2024/01/05 06:06:34;;;;;;;14.25;5.38;;;2.00;99.90;;;;;;4141325;28;20120;-82
2024/01/05 06:08:35;;;;;;;12.18;4.32;;;2.00;99.90;;;;;;4142132;28;20046;-82
2024/01/05 06:10:36;;;;;;;13.52;5.38;;;2.80;99.90;;;;;;4140875;28;20056;-82
2024/01/05 06:12:38;;;;;;;10.95;5.03;;;2.00;99.90;;;;;;4140826;28;20043;-81
2024/01/05 06:14:38;;;;;;;13.48;5.53;;;2.00;99.90;;;;;;4140646;28;20055;-82
2024/01/05 06:16:40;;;;;;;9.27;4.28;;;2.10;99.90;;;;;;4140607;28;20057;-81
2024/01/05 06:18:42;;;;;;;11.32;4.65;;;2.00;99.90;;;;;;4151029;28;20056;-82
2024/01/05 06:20:44;;;;;;;11.50;5.05;;;2.10;99.90;;;;;;4140283;28;20069;-82
2024/01/05 06:22:44;;;;;;;13.07;4.88;;;2.50;99.90;;;;;;4139919;28;20458;-82
2024/01/05 06:24:48;;;;;;;12.70;4.97;;;2.10;99.90;;;;;;4140127;28;20100;-82
2024/01/05 06:26:49;;;;;;;10.32;4.30;;;2.10;99.90;;;;;;4140602;28;20041;-81
2024/01/05 06:28:51;;;;;;;11.35;4.80;;;2.00;99.90;;;;;;4140179;28;20129;-82
2024/01/05 06:30:52;;;;;;;11.90;4.88;;;2.10;99.90;;;;;;4140606;28;20054;-82
2024/01/05 06:32:54;;;;;;;10.43;4.43;;;2.10;99.90;;;;;;4140175;28;20581;-82
2024/01/05 06:34:56;;;;;;;10.07;4.60;;;2.10;99.90;;;;;;4139710;28;20042;-82
2024/01/05 06:36:59;;;;;;;9.52;4.30;;;2.10;99.90;;;;;;4140547;28;20515;-82
2024/01/05 06:39:00;;;;;;;12.55;4.50;;;3.00;99.90;;;;;;4131718;28;20050;-82
2024/01/05 06:41:01;;;;;;;14.88;4.97;;;2.10;99.90;;;;;;4125611;28;20042;-81
2024/01/05 06:43:04;;;;;;;12.30;4.80;;;2.10;99.90;;;;;;4140934;28;20104;-81
2024/01/05 06:45:05;;;;;;;13.43;5.43;;;2.60;99.90;;;;;;4140827;28;20042;-81
2024/01/05 06:47:07;;;;;;;12.18;5.32;;;2.10;99.90;;;;;;4136648;28;20046;-81
2024/01/05 06:49:07;;;;;;;13.30;4.90;;;2.30;99.90;;;;;;4137624;28;20031;-81
2024/01/05 06:51:10;;;;;;;12.63;4.90;;;2.20;99.90;;;;;;4128025;28;20104;-80
2024/01/05 06:53:17;;;;;;;12.38;4.80;;;2.20;99.90;;;;;;4132260;28;20066;-80
2024/01/05 06:55:19;;;;;;;11.85;4.75;;;2.20;99.90;;;;;;4132520;28;20042;-80
2024/01/05 06:57:22;;;;;;;12.10;5.00;;;2.20;99.90;;;;;;4133427;28;20059;-81
2024/01/05 06:59:24;;;;;;;12.15;5.07;;;2.20;99.90;;;;;;4133123;28;20072;-80
2024/01/05 07:01:26;;;;;;;15.05;5.57;;;2.60;99.90;;;;;;4134028;28;20050;-80
2024/01/05 07:03:27;;;;;;;11.85;5.00;;;2.20;99.90;;;;;;4133707;28;20547;-80
2024/01/05 07:05:29;;;;;;;9.70;4.72;;;2.20;99.90;;;;;;4113509;28;20047;-80
2024/01/05 07:07:30;;;;;;;9.27;4.45;;;2.20;99.90;;;;;;4126242;28;20058;-80
2024/01/05 07:09:31;;;;;;;15.13;5.25;;;2.20;99.90;;;;;;4124408;28;20054;-80
2024/01/05 07:11:32;;;;;;;12.10;5.22;;;2.20;99.90;;;;;;4106887;29;20131;-81
2024/01/05 07:13:33;;;;;;;11.27;4.40;;;3.10;99.90;;;;;;4124320;28;20042;-81
2024/01/05 07:15:35;;;;;;;16.27;5.00;;;2.30;99.90;;;;;;4124018;28;20042;-81
2024/01/05 07:17:37;;;;;;;12.48;4.78;;;2.30;99.90;;;;;;4123918;28;20074;-81
2024/01/05 07:19:40;;;;;;;10.35;5.03;;;2.30;99.90;;;;;;4124560;28;20059;-81
2024/01/05 07:21:43;;;;;;;11.32;4.80;;;2.50;99.90;;;;;;4123502;28;20126;-81
2024/01/05 07:23:45;;;;;;;11.80;4.13;;;2.30;99.90;;;;;;4123774;28;20050;-81
2024/01/05 07:25:47;;;;;;;12.63;4.80;;;2.90;99.90;;;;;;4124171;28;20083;-81
2024/01/05 07:27:48;;;;;;;12.55;4.68;;;2.30;99.90;;;;;;4121650;28;20396;-81
2024/01/05 07:29:49;;;;;;;17.35;5.05;;;2.40;99.90;;;;;;4139565;28;20046;-81
2024/01/05 07:31:50;;;;;;;13.57;4.65;;;3.20;99.90;;;;;;4139772;28;20510;-81
2024/01/05 07:33:52;;;;;;;16.58;5.32;;;2.40;99.90;;;;;;4121763;28;20050;-81
2024/01/05 07:35:52;;;;;;;8.32;4.43;;;2.40;99.90;;;;;;4121764;28;20078;-81
2024/01/05 07:37:56;;;;;;;12.10;5.03;;;2.40;99.90;;;;;;4138068;28;20051;-81
2024/01/05 07:40:03;;;;;;;11.25;4.78;;;2.40;99.90;;;;;;4139074;28;20050;-81
2024/01/05 07:42:04;;;;;;;11.18;4.30;;;2.40;99.90;;;;;;4138150;28;20070;-81
2024/01/05 07:44:06;;;;;;;12.15;5.45;;;2.40;99.90;;;;;;4138814;28;20046;-81
2024/01/05 07:46:08;;;;;;;11.50;5.00;;;2.40;99.90;;;;;;4138897;28;20042;-80
2024/01/05 07:48:08;;;;;;;13.43;4.85;;;2.40;99.90;;;;;;4138394;28;20046;-81
2024/01/05 07:50:10;;;;;;;11.50;4.57;;;2.40;99.90;;;;;;4138499;28;20050;-81
2024/01/05 07:52:12;;;;;;;14.60;5.32;;;2.40;99.90;;;;;;4137949;28;20100;-81
2024/01/05 07:54:12;;;;;;;11.93;5.00;;;2.40;99.90;;;;;;4138661;28;20046;-81
2024/01/05 07:56:14;;;;;;;13.30;5.43;;;2.40;99.90;;;;;;4138301;28;20057;-80
2024/01/05 07:58:17;;;;;;;12.85;5.40;;;2.60;99.90;;;;;;4137673;28;20058;-81
2024/01/05 08:00:18;;;;;;;11.38;4.65;;;2.50;99.90;;;;;;4135284;28;20031;-80
2024/01/05 08:02:19;;;;;;;12.95;5.72;;;2.50;99.90;;;;;;4128608;28;20061;-81
2024/01/05 08:04:21;;;;;;;15.73;5.82;;;2.50;99.90;;;;;;4144811;28;20114;-80
2024/01/05 08:06:23;;;;;;;10.98;5.03;;;2.50;99.90;;;;;;4129845;28;20047;-80
2024/01/05 08:08:23;;;;;;;10.43;4.70;;;2.50;99.90;;;;;;4144925;28;20384;-80
2024/01/05 08:10:25;;;;;;;16.27;5.80;;;2.80;99.90;;;;;;4144732;28;20053;-80
2024/01/05 08:12:31;;;;;;;12.18;5.18;;;2.50;99.90;;;;;;4146419;28;20042;-81
2024/01/05 08:14:33;;;;;;;11.05;4.55;;;2.50;99.90;;;;;;4129331;28;20065;-81
2024/01/05 08:16:36;;;;;;;14.75;5.65;;;2.50;99.90;;;;;;4144193;28;20085;-81
2024/01/05 08:18:39;;;;;;;13.52;5.38;;;2.50;99.90;;;;;;4143303;28;20049;-81
2024/01/05 08:20:40;;;;;;;14.88;7.10;;;2.60;99.90;;;;;;4141155;28;20054;-81
2024/01/05 08:22:41;;;;;;;14.52;6.10;;;2.60;99.90;;;;;;4142566;28;20053;-81
2024/01/05 08:24:47;;;;;;;14.38;5.82;;;2.60;99.90;;;;;;4125927;28;20050;-81
2024/01/05 08:26:49;;;;;;;15.93;6.38;;;2.60;99.90;;;;;;4142504;28;20491;-81
2024/01/05 08:28:49;;;;;;;15.73;6.07;;;2.60;99.90;;;;;;4142850;28;20046;-81
2024/01/05 08:30:51;;;;;;;15.82;6.72;;;2.60;99.90;;;;;;4143347;28;20053;-81
2024/01/05 08:32:55;;;;;;;19.83;6.22;;;2.70;99.90;;;;;;4143230;28;20061;-81
2024/01/05 08:34:56;;;;;;;16.17;6.10;;;2.60;99.90;;;;;;4124512;28;20117;-81
2024/01/05 08:36:58;;;;;;;16.67;6.55;;;2.60;99.90;;;;;;4143270;28;20050;-80
2024/01/05 08:39:00;;;;;;;19.55;6.85;;;2.60;99.90;;;;;;4145188;28;20125;-80
2024/01/05 08:41:02;;;;;;;18.77;7.00;;;2.60;99.90;;;;;;4148776;28;20080;-81
2024/01/05 08:43:03;;;;;;;21.10;7.00;;;2.70;99.90;;;;;;4160283;28;20049;-82
2024/01/05 08:45:04;;;;;;;19.95;6.50;;;2.60;99.90;;;;;;4154891;28;20019;-81
2024/01/05 08:47:06;;;;;;;16.58;7.10;;;2.60;99.90;;;;;;4164665;28;20065;-81
2024/01/05 08:49:07;;;;;;;15.13;6.22;;;2.60;99.90;;;;;;4148251;28;20038;-81
2024/01/05 08:51:08;;;;;;;15.38;6.75;;;2.70;99.90;;;;;;4146738;28;20061;-80
2024/01/05 08:53:10;;;;;;;13.85;6.68;;;3.10;99.90;;;;;;4149946;28;20051;-81
2024/01/05 08:55:14;;;;;;;15.18;6.70;;;2.70;99.90;;;;;;4150302;28;20086;-81
2024/01/05 08:57:14;;;;;;;20.90;7.35;;;2.70;99.90;;;;;;4148785;28;20042;-81
2024/01/05 08:59:15;;;;;;;14.52;5.63;;;2.70;99.90;;;;;;4146528;28;20077;-81
2024/01/05 09:01:16;;;;;;;17.23;6.97;;;2.70;99.90;;;;;;4146367;28;20043;-81
2024/01/05 09:03:17;;;;;;;19.42;6.90;;;2.70;99.90;;;;;;4144733;28;20046;-80
2024/01/05 09:05:18;;;;;;;17.13;6.75;;;2.70;99.90;;;;;;4127431;28;20082;-81
2024/01/05 09:07:19;;;;;;;16.88;7.50;;;2.70;99.90;;;;;;4143206;28;20042;-80
2024/01/05 09:09:21;;;;;;;15.20;6.22;;;2.70;99.90;;;;;;4141869;28;20054;-80
2024/01/05 09:11:23;;;;;;;18.00;7.47;;;2.80;99.90;;;;;;4138928;28;20487;-81
2024/01/05 09:13:25;;;;;;;13.18;5.95;;;2.80;99.90;;;;;;4139951;28;20461;-81
2024/01/05 09:15:27;;;;;;;14.23;6.53;;;3.00;99.90;;;;;;4137347;28;20053;-80
2024/01/05 09:17:29;;;;;;;14.73;6.30;;;2.80;99.90;;;;;;4141075;28;20054;-81
2024/01/05 09:19:32;;;;;;;16.25;6.03;;;2.80;99.90;;;;;;4139693;28;20038;-81
2024/01/05 09:21:34;;;;;;;18.08;5.80;;;3.60;99.90;;;;;;4141284;28;20058;-81
2024/01/05 09:23:34;;;;;;;15.88;5.85;;;2.80;99.90;;;;;;4124129;28;20062;-82
2024/01/05 09:25:36;;;;;;;13.63;5.95;;;2.90;99.90;;;;;;4123218;28;20099;-82
2024/01/05 09:27:39;;;;;;;15.73;5.35;;;2.90;99.90;;;;;;4140349;28;20096;-82
2024/01/05 09:29:40;;;;;;;16.05;5.80;;;2.90;99.90;;;;;;4141100;28;20046;-82
2024/01/05 09:31:48;;;;;;;12.75;5.20;;;2.90;99.90;;;;;;4123754;28;20066;-82
2024/01/05 09:33:49;;;;;;;14.38;5.50;;;3.00;99.90;;;;;;4133636;28;20085;-81
2024/01/05 09:35:51;;;;;;;11.23;4.72;;;2.90;99.90;;;;;;4139547;28;20406;-81
2024/01/05 09:37:53;;;;;;;13.88;6.18;;;3.00;99.90;;;;;;4139583;28;20073;-81
2024/01/05 09:39:54;;;;;;;12.02;4.85;;;2.90;99.90;;;;;;4139251;28;20101;-81
2024/01/05 09:41:55;;;;;;;12.40;5.43;;;3.00;99.90;;;;;;4139304;28;20046;-81
2024/01/05 09:43:57;;;;;;;13.63;5.00;;;3.00;99.90;;;;;;4140053;28;20117;-81
2024/01/05 09:45:59;;;;;;;13.70;5.53;;;3.60;99.90;;;;;;4139149;28;20057;-81
2024/01/05 09:48:00;;;;;;;13.55;5.85;;;3.00;99.90;;;;;;4139467;28;20054;-81
2024/01/05 09:50:04;;;;;;;11.32;5.47;;;3.00;99.90;;;;;;4135609;28;20038;-81
2024/01/05 09:52:11;;;;;;;10.98;4.97;;;3.00;99.90;;;;;;4138948;28;20073;-81
2024/01/05 09:54:13;;;;;;;11.63;5.00;;;3.00;99.90;;;;;;4137962;28;20057;-81
2024/01/05 09:56:15;;;;;;;12.30;5.05;;;3.10;99.90;;;;;;4139110;28;20046;-81
2024/01/05 09:58:17;;;;;;;14.50;5.28;;;3.10;99.90;;;;;;4135392;28;20042;-81
2024/01/05 10:00:20;;;;;;;13.68;6.78;;;3.10;99.90;;;;;;4126974;28;20042;-81
2024/01/05 10:02:36;;;;;;;10.15;5.18;;;3.10;99.90;;;;;;4137642;28;20495;-82
2024/01/05 10:04:39;;;;;;;13.80;6.20;;;3.20;99.90;;;;;;4137479;28;20057;-81
2024/01/05 10:06:39;;;;;;;12.95;5.70;;;3.10;99.90;;;;;;4137059;28;20086;-81
2024/01/05 10:08:41;;;;;;;11.68;5.07;;;3.10;99.90;;;;;;4137949;28;20069;-81
2024/01/05 10:10:53;;;;;;;15.10;5.45;;;4.20;99.90;;;;;;4137155;28;20046;-81
2024/01/05 10:13:05;;;;;;;12.50;5.63;;;3.20;99.90;;;;;;4136980;28;20061;-82
2024/01/05 10:15:11;;;;;;;13.85;5.22;;;3.20;99.90;;;;;;4137304;28;20042;-81
2024/01/05 10:17:13;;;;;;;12.98;5.85;;;3.20;99.90;;;;;;4138167;28;20042;-82
2024/01/05 10:19:19;;;;;;;21.13;5.70;;;3.20;99.90;;;;;;4128139;28;20061;-81
2024/01/05 10:21:23;;;;;;;13.88;5.45;;;3.20;99.90;;;;;;4136469;28;20346;-83
2024/01/05 10:23:24;;;;;;;15.07;5.22;;;3.30;99.90;;;;;;4138184;28;20046;-84
2024/01/05 10:25:26;;;;;;;12.20;5.43;;;3.50;99.90;;;;;;4137884;28;20051;-83
2024/01/05 10:27:27;;;;;;;14.02;5.88;;;3.30;99.90;;;;;;4135281;28;20070;-83
2024/01/05 10:29:30;;;;;;;18.30;5.40;;;3.40;99.90;;;;;;4130748;28;20106;-82
2024/01/05 10:31:32;;;;;;;14.50;5.50;;;3.40;99.90;;;;;;4137005;28;20112;-82
2024/01/05 10:33:33;;;;;;;12.32;5.60;;;3.40;99.90;;;;;;4137247;28;20046;-83
2024/01/05 10:35:35;;;;;;;14.57;6.18;;;3.70;99.90;;;;;;4133520;28;20569;-82
2024/01/05 10:37:36;;;;;;;16.23;6.60;;;3.50;99.90;;;;;;4135100;28;20049;-82